createdAt,value
2016-04-25T07:03:08.154Z,707.43
2016-04-25T07:03:20.766Z,707.36
2016-04-25T07:03:34.282Z,707.43
2016-04-25T07:03:47.594Z,707.39
2016-04-25T07:04:00.938Z,707.42
2016-04-25T07:04:14.266Z,707.38
2016-04-25T07:04:27.613Z,707.35
2016-04-25T07:04:40.941Z,707.38
2016-04-25T07:04:54.238Z,707.35
2016-04-25T07:05:07.581Z,707.35
2016-04-25T07:05:20.897Z,707.39
2016-04-25T07:05:34.647Z,707.35
2016-04-25T07:05:47.991Z,707.43
2016-04-25T07:06:01.319Z,707.41
2016-04-25T07:06:14.678Z,707.39
2016-04-25T07:06:27.853Z,707.39
2016-04-25T07:06:41.150Z,707.45
2016-04-25T07:06:54.494Z,707.42
2016-04-25T07:07:07.791Z,707.44
2016-04-25T07:07:21.168Z,707.43
2016-04-25T07:07:38.074Z,707.42
2016-04-25T07:07:51.402Z,707.44
2016-04-25T07:08:04.714Z,707.49
2016-04-25T07:08:18.030Z,707.41
2016-04-25T07:08:31.374Z,707.43
2016-04-25T07:08:44.733Z,707.44
2016-04-25T07:08:58.077Z,707.37
2016-04-25T07:09:11.405Z,707.38
2016-04-25T07:09:24.736Z,707.39
2016-04-25T07:09:38.064Z,707.32
2016-04-25T07:09:51.392Z,707.36
2016-04-25T07:10:04.720Z,707.41
2016-04-25T07:10:18.066Z,707.42
2016-04-25T07:10:31.769Z,707.44
2016-04-25T07:10:45.113Z,707.38
2016-04-25T07:10:58.394Z,707.45
2016-04-25T07:11:11.738Z,707.5
2016-04-25T07:11:25.085Z,707.47
2016-04-25T07:11:38.413Z,707.47
2016-04-25T07:11:51.741Z,707.36
2016-04-25T07:12:05.272Z,707.48
2016-04-25T07:12:18.603Z,707.41
2016-04-25T07:12:38.619Z,707.4
2016-04-25T07:12:51.963Z,707.38
2016-04-25T07:13:05.213Z,707.38
2016-04-25T07:13:19.418Z,707.37
2016-04-25T07:13:33.074Z,707.41
2016-04-25T07:13:47.668Z,707.37
2016-04-25T07:14:02.105Z,707.44
2016-04-25T07:14:15.027Z,707.42
2016-04-25T07:14:28.702Z,707.46
2016-04-25T07:14:42.015Z,707.41
2016-04-25T07:14:55.343Z,707.47
2016-04-25T07:15:08.671Z,707.4
2016-04-25T07:15:22.018Z,707.44
2016-04-25T07:15:35.346Z,707.44
2016-04-25T07:15:48.674Z,707.51
2016-04-25T07:16:02.002Z,707.51
2016-04-25T07:16:15.315Z,707.55
2016-04-25T07:16:28.848Z,707.49
2016-04-25T07:16:42.379Z,707.47
2016-04-25T07:16:55.910Z,707.48
2016-04-25T07:17:09.270Z,707.51
2016-04-25T07:17:22.429Z,707.5
2016-04-25T07:17:36.335Z,707.51
2016-04-25T07:18:18.182Z,707.51
2016-04-25T07:18:31.541Z,707.44
2016-04-25T07:18:44.901Z,707.51
2016-04-25T07:18:58.213Z,707.49
2016-04-25T07:19:11.541Z,707.49
2016-04-25T07:19:25.076Z,707.53
2016-04-25T07:19:38.404Z,707.5
2016-04-25T07:19:51.763Z,707.52
2016-04-25T07:20:05.107Z,707.58
2016-04-25T07:20:18.437Z,707.49
2016-04-25T07:20:31.999Z,707.5
2016-04-25T07:20:45.531Z,707.55
2016-04-25T07:21:01.874Z,707.49
2016-04-25T07:21:15.187Z,707.54
2016-04-25T07:21:28.706Z,707.48
2016-04-25T07:21:42.034Z,707.48
2016-04-25T07:21:55.581Z,707.6
2016-04-25T07:22:08.909Z,707.57
2016-04-25T07:22:22.239Z,707.5
2016-04-25T07:22:36.770Z,707.49
2016-04-25T07:22:50.083Z,707.46
2016-04-25T07:23:03.411Z,707.48
2016-04-25T07:23:16.739Z,707.52
2016-04-25T07:23:30.070Z,707.47
2016-04-25T07:23:43.601Z,707.41
2016-04-25T07:23:56.929Z,707.52
2016-04-25T07:24:10.257Z,707.43
2016-04-25T07:24:23.589Z,707.45
2016-04-25T07:24:36.917Z,707.4
2016-04-25T07:24:50.245Z,707.45
2016-04-25T07:25:03.573Z,707.49
2016-04-25T07:25:16.901Z,707.52
2016-04-25T07:25:44.592Z,707.55
2016-04-25T07:25:57.904Z,707.53
2016-04-25T07:26:11.217Z,707.51
2016-04-25T07:26:24.547Z,707.39
2016-04-25T07:26:37.875Z,707.46
2016-04-25T07:26:51.203Z,707.46
2016-04-25T07:27:04.531Z,707.45
2016-04-25T07:27:17.859Z,707.5
2016-04-25T07:27:33.831Z,707.47
2016-04-25T07:27:47.143Z,707.49
2016-04-25T07:28:00.675Z,707.57
2016-04-25T07:28:13.878Z,707.46
2016-04-25T07:28:27.100Z,707.43
2016-04-25T07:28:40.365Z,707.53
2016-04-25T07:28:54.568Z,707.37
2016-04-25T07:29:08.521Z,707.44
2016-04-25T07:29:21.820Z,707.41
2016-04-25T07:29:34.992Z,707.4
2016-04-25T07:29:48.320Z,707.43
2016-04-25T07:30:01.633Z,707.37
2016-04-25T07:30:14.930Z,707.46
2016-04-25T07:30:31.308Z,707.41
2016-04-25T07:30:44.511Z,707.46
2016-04-25T07:30:57.808Z,707.45
2016-04-25T07:31:11.151Z,707.49
2016-04-25T07:31:24.451Z,707.46
2016-04-25T07:31:37.764Z,707.5
2016-04-25T07:31:51.092Z,707.44
2016-04-25T07:32:04.389Z,707.39
2016-04-25T07:32:17.561Z,707.4
2016-04-25T07:32:31.579Z,707.38
2016-04-25T07:32:44.892Z,707.46
2016-04-25T07:32:58.189Z,707.35
2016-04-25T07:33:11.501Z,707.31
2016-04-25T07:33:24.831Z,707.39
2016-04-25T07:33:38.159Z,707.38
2016-04-25T07:33:51.488Z,707.4
2016-04-25T07:34:04.784Z,707.44
2016-04-25T07:34:18.113Z,707.39
2016-04-25T07:34:31.428Z,707.43
2016-04-25T07:34:44.741Z,707.45
2016-04-25T07:34:57.319Z,707.46
2016-04-25T07:35:10.631Z,707.43
2016-04-25T07:35:23.947Z,707.4
2016-04-25T07:35:51.431Z,707.5
2016-04-25T07:36:04.728Z,707.51
2016-04-25T07:36:18.056Z,707.53
2016-04-25T07:36:31.230Z,707.61
2016-04-25T07:36:44.574Z,707.56
2016-04-25T07:37:00.886Z,707.47
2016-04-25T07:37:14.230Z,707.53
2016-04-25T07:37:31.702Z,707.46
2016-04-25T07:37:45.045Z,707.46
2016-04-25T07:37:58.374Z,707.45
2016-04-25T07:38:11.889Z,707.38
2016-04-25T07:38:25.204Z,707.38
2016-04-25T07:38:38.344Z,707.37
2016-04-25T07:38:51.672Z,707.33
2016-04-25T07:39:05.001Z,707.36
2016-04-25T07:39:18.344Z,707.4
2016-04-25T07:39:31.661Z,707.43
2016-04-25T07:39:44.958Z,707.33
2016-04-25T07:39:58.286Z,707.39
2016-04-25T07:40:11.583Z,707.43
2016-04-25T07:40:24.897Z,707.47
2016-04-25T07:40:38.257Z,707.4
2016-04-25T07:41:04.991Z,707.49
2016-04-25T07:41:18.319Z,707.49
2016-04-25T07:41:31.666Z,707.42
2016-04-25T07:41:44.978Z,707.53
2016-04-25T07:41:58.306Z,707.52
2016-04-25T07:42:11.635Z,707.55
2016-04-25T07:42:28.262Z,707.52
2016-04-25T07:42:41.793Z,707.48
2016-04-25T07:42:55.121Z,707.46
2016-04-25T07:43:08.465Z,707.48
2016-04-25T07:43:22.061Z,707.51
2016-04-25T07:43:36.140Z,707.53
2016-04-25T07:43:49.999Z,707.42
2016-04-25T07:44:02.874Z,707.5
2016-04-25T07:44:16.530Z,707.55
2016-04-25T07:44:29.751Z,707.45
2016-04-25T07:44:43.126Z,707.47
2016-04-25T07:44:56.438Z,707.48
2016-04-25T07:45:09.735Z,707.51
2016-04-25T07:45:23.067Z,707.5
2016-04-25T07:45:50.567Z,707.43
2016-04-25T07:46:03.896Z,707.49
2016-04-25T07:46:17.224Z,707.49
2016-04-25T07:46:30.538Z,707.53
2016-04-25T07:46:43.882Z,707.54
2016-04-25T07:46:57.194Z,707.54
2016-04-25T07:47:10.507Z,707.45
2016-04-25T07:47:23.838Z,707.5
2016-04-25T07:47:38.447Z,707.48
2016-04-25T07:47:52.401Z,707.52
2016-04-25T07:48:05.713Z,707.51
2016-04-25T07:48:19.041Z,707.55
2016-04-25T07:48:32.340Z,707.5
2016-04-25T07:48:45.699Z,707.51
2016-04-25T07:48:59.012Z,707.5
2016-04-25T07:49:12.168Z,707.52
2016-04-25T07:49:25.484Z,707.58
2016-04-25T07:49:38.812Z,707.58
2016-04-25T07:49:52.124Z,707.63
2016-04-25T07:50:05.452Z,707.58
2016-04-25T07:50:18.765Z,707.61
2016-04-25T07:50:32.096Z,707.6
2016-04-25T07:50:45.409Z,707.63
2016-04-25T07:50:58.721Z,707.59
2016-04-25T07:51:12.034Z,707.61
2016-04-25T07:51:25.364Z,707.51
2016-04-25T07:51:38.692Z,707.52
2016-04-25T07:51:52.004Z,707.52
2016-04-25T07:52:05.317Z,707.54
2016-04-25T07:52:18.645Z,707.49
2016-04-25T07:52:35.758Z,707.53
2016-04-25T07:52:48.321Z,707.56
2016-04-25T07:53:01.493Z,707.58
2016-04-25T07:53:14.821Z,707.59
2016-04-25T07:53:28.135Z,707.55
2016-04-25T07:53:41.463Z,707.58
2016-04-25T07:53:54.807Z,707.59
2016-04-25T07:54:08.151Z,707.57
2016-04-25T07:54:21.482Z,707.59
2016-04-25T07:54:34.826Z,707.6
2016-04-25T07:54:48.123Z,707.66
2016-04-25T07:55:01.654Z,707.61
2016-04-25T07:55:14.998Z,707.67
2016-04-25T07:55:28.329Z,707.67
2016-04-25T07:55:41.626Z,707.73
2016-04-25T07:55:54.954Z,707.76
2016-04-25T07:56:08.266Z,707.75
2016-04-25T07:56:21.612Z,707.8
2016-04-25T07:56:34.753Z,707.84
2016-04-25T07:56:48.081Z,707.83
2016-04-25T07:57:01.440Z,707.91
2016-04-25T07:57:14.753Z,707.98
2016-04-25T07:57:32.864Z,707.88
2016-04-25T07:57:46.020Z,707.88
2016-04-25T07:57:59.333Z,707.88
2016-04-25T07:58:13.005Z,707.85
2016-04-25T07:58:26.243Z,707.82
2016-04-25T07:58:40.509Z,707.84
2016-04-25T07:58:53.165Z,707.82
2016-04-25T07:59:06.274Z,707.54
2016-04-25T07:59:19.477Z,707.46
2016-04-25T07:59:33.214Z,707.46
2016-04-25T07:59:46.542Z,707.43
2016-04-25T07:59:59.854Z,707.39
2016-04-25T08:00:13.198Z,707.39
2016-04-25T08:00:26.514Z,707.53
2016-04-25T08:00:39.795Z,707.55
2016-04-25T08:00:56.107Z,707.67
2016-04-25T08:01:09.404Z,707.68
2016-04-25T08:01:22.751Z,707.67
2016-04-25T08:01:36.064Z,707.83
2016-04-25T08:01:49.376Z,707.65
2016-04-25T08:02:02.673Z,707.63
2016-04-25T08:02:16.001Z,707.66
2016-04-25T08:02:43.331Z,707.72
2016-04-25T08:02:56.644Z,707.71
2016-04-25T08:03:09.956Z,707.75
2016-04-25T08:03:23.287Z,707.71
2016-04-25T08:03:36.600Z,707.7
2016-04-25T08:03:49.928Z,708.04
2016-04-25T08:04:03.256Z,707.79
2016-04-25T08:04:16.584Z,707.75
2016-04-25T08:04:32.915Z,707.64
2016-04-25T08:04:46.243Z,707.53
2016-04-25T08:04:59.572Z,707.62
2016-04-25T08:05:12.884Z,707.73
2016-04-25T08:05:26.074Z,707.7
2016-04-25T08:05:39.370Z,707.79
2016-04-25T08:05:52.683Z,707.68
2016-04-25T08:06:06.027Z,707.72
2016-04-25T08:06:19.370Z,707.62
2016-04-25T08:06:32.702Z,707.67
2016-04-25T08:06:46.014Z,707.74
2016-04-25T08:06:59.311Z,707.84
2016-04-25T08:07:12.655Z,708.01
2016-04-25T08:07:29.767Z,708.08
2016-04-25T08:07:44.064Z,708.05
2016-04-25T08:07:57.376Z,707.97
2016-04-25T08:08:10.705Z,708.04
2016-04-25T08:08:24.019Z,708.29
2016-04-25T08:08:37.347Z,708.09
2016-04-25T08:08:50.675Z,707.83
2016-04-25T08:09:03.988Z,707.71
2016-04-25T08:09:17.347Z,707.66
2016-04-25T08:09:30.678Z,707.79
2016-04-25T08:09:43.991Z,707.8
2016-04-25T08:09:57.522Z,707.78
2016-04-25T08:10:10.866Z,707.69
2016-04-25T08:10:24.197Z,707.76
2016-04-25T08:10:37.541Z,707.75
2016-04-25T08:10:50.838Z,707.8
2016-04-25T08:11:04.150Z,707.82
2016-04-25T08:11:17.431Z,707.82
2016-04-25T08:11:30.778Z,707.74
2016-04-25T08:11:44.106Z,707.76
2016-04-25T08:11:57.419Z,707.72
2016-04-25T08:12:10.762Z,707.81
2016-04-25T08:12:24.742Z,707.82
2016-04-25T08:12:40.914Z,707.83
2016-04-25T08:12:54.211Z,707.85
2016-04-25T08:13:07.555Z,707.84
2016-04-25T08:13:20.898Z,707.72
2016-04-25T08:13:34.526Z,707.89
2016-04-25T08:13:47.839Z,707.91
2016-04-25T08:14:01.979Z,707.75
2016-04-25T08:14:16.886Z,707.7
2016-04-25T08:14:30.592Z,707.84
2016-04-25T08:14:44.357Z,707.75
2016-04-25T08:14:57.701Z,707.68
2016-04-25T08:15:11.014Z,707.84
2016-04-25T08:15:24.328Z,707.71
2016-04-25T08:15:37.656Z,707.99
2016-04-25T08:15:50.953Z,707.79
2016-04-25T08:16:04.297Z,707.85
2016-04-25T08:16:17.609Z,707.75
2016-04-25T08:16:30.924Z,707.73
2016-04-25T08:16:44.221Z,707.77
2016-04-25T08:16:57.783Z,707.85
2016-04-25T08:17:11.111Z,707.78
2016-04-25T08:17:24.428Z,707.8
2016-04-25T08:17:37.615Z,707.86
2016-04-25T08:17:50.600Z,707.88
2016-04-25T08:18:03.912Z,707.86
2016-04-25T08:18:17.444Z,707.94
2016-04-25T08:18:30.789Z,707.95
2016-04-25T08:18:47.086Z,708.05
2016-04-25T08:19:00.414Z,708.08
2016-04-25T08:19:13.711Z,707.91
2016-04-25T08:19:27.042Z,708.06
2016-04-25T08:19:40.402Z,707.98
2016-04-25T08:19:53.730Z,707.92
2016-04-25T08:20:07.027Z,707.88
2016-04-25T08:20:23.370Z,707.9
2016-04-25T08:20:36.701Z,708.08
2016-04-25T08:20:50.044Z,707.91
2016-04-25T08:21:03.341Z,708.03
2016-04-25T08:21:16.654Z,707.98
2016-04-25T08:21:44.172Z,707.89
2016-04-25T08:21:57.329Z,707.83
2016-04-25T08:22:10.188Z,707.96
2016-04-25T08:22:23.204Z,708.03
2016-04-25T08:22:36.582Z,707.92
2016-04-25T08:22:49.895Z,707.99
2016-04-25T08:23:03.223Z,707.9
2016-04-25T08:23:16.520Z,707.84
2016-04-25T08:23:32.851Z,707.83
2016-04-25T08:23:46.195Z,707.85
2016-04-25T08:23:59.804Z,707.99
2016-04-25T08:24:13.007Z,707.99
2016-04-25T08:24:26.322Z,708.19
2016-04-25T08:24:39.634Z,708.33
2016-04-25T08:24:52.962Z,708.22
2016-04-25T08:25:06.275Z,708.27
2016-04-25T08:25:19.431Z,708.17
2016-04-25T08:25:32.778Z,707.98
2016-04-25T08:25:46.106Z,707.93
2016-04-25T08:25:59.465Z,707.92
2016-04-25T08:26:12.794Z,707.88
2016-04-25T08:26:26.109Z,707.89
2016-04-25T08:26:39.422Z,707.86
2016-04-25T08:26:52.718Z,707.9
2016-04-25T08:27:06.062Z,707.96
2016-04-25T08:27:19.375Z,708.13
2016-04-25T08:27:32.736Z,708.24
2016-04-25T08:27:46.033Z,708.08
2016-04-25T08:27:59.345Z,708.09
2016-04-25T08:28:12.549Z,708.08
2016-04-25T08:28:25.583Z,708.05
2016-04-25T08:28:38.692Z,708
2016-04-25T08:28:52.411Z,708.01
2016-04-25T08:29:09.411Z,708.03
2016-04-25T08:29:23.739Z,708.08
2016-04-25T08:29:37.617Z,708.13
2016-04-25T08:29:50.836Z,708.25
2016-04-25T08:30:04.148Z,708.28
2016-04-25T08:30:17.461Z,708.17
2016-04-25T08:30:34.026Z,708.2
2016-04-25T08:30:47.558Z,708.31
2016-04-25T08:31:00.870Z,708.48
2016-04-25T08:31:14.198Z,708.26
2016-04-25T08:31:27.528Z,708.15
2016-04-25T08:31:40.841Z,708.14
2016-04-25T08:32:08.341Z,708.21
2016-04-25T08:32:21.638Z,708.15
2016-04-25T08:32:49.141Z,708.16
2016-04-25T08:33:02.438Z,708.09
2016-04-25T08:33:15.797Z,708.03
2016-04-25T08:33:29.111Z,708.09
2016-04-25T08:33:42.408Z,708.06
2016-04-25T08:33:55.721Z,708.12
2016-04-25T08:34:12.721Z,708.24
2016-04-25T08:34:26.240Z,708.27
2016-04-25T08:34:39.569Z,708.24
2016-04-25T08:34:52.897Z,708.14
2016-04-25T08:35:06.475Z,708.09
2016-04-25T08:35:19.787Z,708.04
2016-04-25T08:35:33.102Z,708.04
2016-04-25T08:35:46.430Z,708.08
2016-04-25T08:35:59.742Z,708.1
2016-04-25T08:36:13.086Z,708.07
2016-04-25T08:36:26.417Z,708.04
2016-04-25T08:36:39.730Z,708.02
2016-04-25T08:36:53.042Z,708.15
2016-04-25T08:37:06.386Z,708.01
2016-04-25T08:37:20.011Z,708.21
2016-04-25T08:37:33.326Z,708.12
2016-04-25T08:37:46.669Z,708.22
2016-04-25T08:37:59.966Z,708.51
2016-04-25T08:38:13.279Z,708.52
2016-04-25T08:38:26.594Z,708.42
2016-04-25T08:38:39.938Z,708.72
2016-04-25T08:38:53.282Z,708.3
2016-04-25T08:39:08.829Z,708.22
2016-04-25T08:39:22.141Z,708.26
2016-04-25T08:39:35.441Z,708.26
2016-04-25T08:39:48.753Z,708.29
2016-04-25T08:40:02.082Z,708.31
2016-04-25T08:40:15.441Z,708.22
2016-04-25T08:40:56.495Z,708.12
2016-04-25T08:41:09.823Z,708.09
2016-04-25T08:41:23.151Z,708.12
2016-04-25T08:41:36.498Z,708.09
2016-04-25T08:41:49.857Z,708.09
2016-04-25T08:42:03.154Z,708.13
2016-04-25T08:42:16.498Z,708.11
2016-04-25T08:42:29.673Z,708.21
2016-04-25T08:42:42.985Z,708.14
2016-04-25T08:42:56.313Z,708.21
2016-04-25T08:43:09.626Z,708.22
2016-04-25T08:43:23.313Z,708.27
2016-04-25T08:43:37.128Z,708.37
2016-04-25T08:43:53.862Z,708.53
2016-04-25T08:44:10.784Z,708.51
2016-04-25T08:44:24.206Z,708.34
2016-04-25T08:44:37.710Z,708.38
2016-04-25T08:44:51.366Z,708.22
2016-04-25T08:45:04.679Z,708.3
2016-04-25T08:45:18.007Z,708.17
2016-04-25T08:45:31.587Z,708.24
2016-04-25T08:45:44.884Z,708.29
2016-04-25T08:45:58.212Z,708.2
2016-04-25T08:46:11.524Z,708.17
2016-04-25T08:46:24.855Z,708.18
2016-04-25T08:46:38.184Z,708.19
2016-04-25T08:46:51.527Z,708.1
2016-04-25T08:47:04.855Z,707.99
2016-04-25T08:47:18.168Z,708.15
2016-04-25T08:47:31.498Z,708.23
2016-04-25T08:47:44.795Z,708.23
2016-04-25T08:47:58.357Z,708.29
2016-04-25T08:48:11.686Z,708.28
2016-04-25T08:48:25.001Z,708.33
2016-04-25T08:48:38.345Z,708.38
2016-04-25T08:48:51.657Z,708.34
2016-04-25T08:49:08.079Z,708.31
2016-04-25T08:49:21.423Z,708.34
2016-04-25T08:49:34.770Z,708.18
2016-04-25T08:49:48.098Z,708.13
2016-04-25T08:50:01.410Z,708.1
2016-04-25T08:50:14.926Z,708
2016-04-25T08:50:28.256Z,708.17
2016-04-25T08:50:41.787Z,708.14
2016-04-25T08:50:55.147Z,708.04
2016-04-25T08:51:08.475Z,707.92
2016-04-25T08:51:53.134Z,707.72
2016-04-25T08:52:06.462Z,708.04
2016-04-25T08:52:19.775Z,707.9
2016-04-25T08:52:33.309Z,707.81
2016-04-25T08:52:46.637Z,707.92
2016-04-25T08:52:59.950Z,707.85
2016-04-25T08:53:13.293Z,707.87
2016-04-25T08:53:26.623Z,708.08
2016-04-25T08:53:40.170Z,707.73
2016-04-25T08:53:56.139Z,707.81
2016-04-25T08:54:10.952Z,707.99
2016-04-25T08:54:24.123Z,708.07
2016-04-25T08:54:37.455Z,708.04
2016-04-25T08:54:51.111Z,708
2016-04-25T08:55:04.423Z,708.27
2016-04-25T08:55:17.736Z,708.57
2016-04-25T08:55:31.083Z,708.32
2016-04-25T08:55:58.551Z,708.89
2016-04-25T08:56:11.895Z,708.35
2016-04-25T08:56:25.194Z,708.28
2016-04-25T08:56:38.522Z,708.39
2016-04-25T08:56:51.881Z,707.98
2016-04-25T08:57:05.194Z,708.07
2016-04-25T08:57:18.538Z,708.17
2016-04-25T08:57:31.822Z,708.28
2016-04-25T08:57:45.166Z,708.33
2016-04-25T08:57:58.525Z,708.36
2016-04-25T08:58:11.884Z,708.27
2016-04-25T08:58:25.809Z,708.23
2016-04-25T08:58:39.950Z,708.06
2016-04-25T08:58:53.575Z,708.08
2016-04-25T08:59:10.825Z,707.93
2016-04-25T08:59:25.734Z,707.95
2016-04-25T08:59:39.437Z,708.03
2016-04-25T08:59:52.281Z,707.93
2016-04-25T09:00:05.625Z,708.13
2016-04-25T09:00:19.000Z,708.16
2016-04-25T09:00:32.299Z,707.97
2016-04-25T09:00:45.627Z,707.61
2016-04-25T09:01:13.096Z,707.93
2016-04-25T09:01:26.442Z,708.07
2016-04-25T09:01:39.770Z,708
2016-04-25T09:02:07.333Z,707.84
2016-04-25T09:02:20.645Z,708.02
2016-04-25T09:02:33.976Z,707.97
2016-04-25T09:02:47.304Z,708.19
2016-04-25T09:03:00.632Z,708.31
2016-04-25T09:03:13.976Z,708.07
2016-04-25T09:03:27.307Z,708.25
2016-04-25T09:03:40.854Z,708.13
2016-04-25T09:03:54.650Z,708.2
2016-04-25T09:04:09.650Z,708.12
2016-04-25T09:04:22.979Z,708.03
2016-04-25T09:04:36.310Z,708.15
2016-04-25T09:04:49.638Z,708.06
2016-04-25T09:05:02.997Z,707.98
2016-04-25T09:05:16.341Z,707.99
2016-04-25T09:05:29.688Z,708.14
2016-04-25T09:05:43.031Z,708.15
2016-04-25T09:06:11.047Z,708.05
2016-04-25T09:06:24.360Z,707.99
2016-04-25T09:06:37.971Z,707.9
2016-04-25T09:06:51.330Z,708
2016-04-25T09:07:04.643Z,707.92
2016-04-25T09:07:17.987Z,707.85
2016-04-25T09:07:31.302Z,707.98
2016-04-25T09:07:44.615Z,708.01
2016-04-25T09:07:57.974Z,708.01
2016-04-25T09:08:11.302Z,707.97
2016-04-25T09:08:24.693Z,708.21
2016-04-25T09:08:38.227Z,708.45
2016-04-25T09:08:51.555Z,709.13
2016-04-25T09:09:04.899Z,712.63
2016-04-25T09:09:21.289Z,709.1
2016-04-25T09:09:34.621Z,708.65
2016-04-25T09:09:48.121Z,708.67
2016-04-25T09:10:01.449Z,708.36
2016-04-25T09:10:14.761Z,708.32
2016-04-25T09:10:28.107Z,708.18
2016-04-25T09:10:41.482Z,708.13
2016-04-25T09:10:54.794Z,707.94
2016-04-25T09:11:08.357Z,708.06
2016-04-25T09:11:35.829Z,708.15
2016-04-25T09:11:49.157Z,707.87
2016-04-25T09:12:02.501Z,708
2016-04-25T09:12:18.813Z,707.99
2016-04-25T09:12:32.159Z,708.14
2016-04-25T09:12:45.487Z,707.98
2016-04-25T09:12:58.815Z,712.56
2016-04-25T09:13:12.331Z,716.71
2016-04-25T09:14:07.287Z,711.27
2016-04-25T09:14:20.271Z,709.68
2016-04-25T09:14:34.462Z,708.81
2016-04-25T09:14:48.337Z,708.29
2016-04-25T09:15:01.962Z,708.1
2016-04-25T09:15:14.774Z,708.01
2016-04-25T09:15:28.136Z,708.06
2016-04-25T09:15:41.464Z,709.25
2016-04-25T09:15:55.011Z,708.39
2016-04-25T09:16:50.205Z,710.43
2016-04-25T09:17:03.549Z,709.64
2016-04-25T09:17:17.080Z,709
2016-04-25T09:17:30.427Z,708.55
2016-04-25T09:17:43.989Z,708.36
2016-04-25T09:17:57.364Z,708.28
2016-04-25T09:18:10.724Z,708.09
2016-04-25T09:18:24.036Z,707.99
2016-04-25T09:18:37.383Z,708.04
2016-04-25T09:19:05.539Z,707.94
2016-04-25T09:19:18.883Z,707.9
2016-04-25T09:19:32.197Z,707.87
2016-04-25T09:19:45.932Z,707.88
2016-04-25T09:19:59.651Z,707.85
2016-04-25T09:20:13.010Z,707.96
2016-04-25T09:20:54.497Z,708.61
2016-04-25T09:21:07.872Z,709.96
2016-04-25T09:21:21.200Z,708.77
2016-04-25T09:21:34.516Z,708.42
2016-04-25T09:21:47.766Z,708.33
2016-04-25T09:22:15.250Z,708.11
2016-04-25T09:22:28.581Z,708.24
2016-04-25T09:22:41.910Z,708.23
2016-04-25T09:22:55.238Z,708.22
2016-04-25T09:23:08.613Z,708.15
2016-04-25T09:23:21.956Z,708.18
2016-04-25T09:23:35.271Z,708.18
2016-04-25T09:23:48.802Z,708.17
2016-04-25T09:24:04.802Z,708.27
2016-04-25T09:24:18.162Z,708.02
2016-04-25T09:24:31.508Z,708.09
2016-04-25T09:24:45.071Z,708.23
2016-04-25T09:24:58.399Z,708.35
2016-04-25T09:25:11.946Z,708.51
2016-04-25T09:25:28.479Z,709.13
2016-04-25T09:25:42.057Z,709.41
2016-04-25T09:25:55.776Z,708.58
2016-04-25T09:26:10.526Z,708.37
2016-04-25T09:26:27.185Z,708.21
2016-04-25T09:26:40.529Z,708.21
2016-04-25T09:27:08.201Z,708.2
2016-04-25T09:27:21.545Z,708.11
2016-04-25T09:27:34.704Z,708.19
2016-04-25T09:27:48.251Z,708.21
2016-04-25T09:28:15.501Z,708.19
2016-04-25T09:28:28.676Z,708.16
2016-04-25T09:28:42.316Z,708.13
2016-04-25T09:28:55.863Z,708.29
2016-04-25T09:29:16.379Z,708.02
2016-04-25T09:29:29.803Z,708
2016-04-25T09:29:42.912Z,708
2016-04-25T09:29:56.287Z,708.03
2016-04-25T09:30:09.599Z,708.07
2016-04-25T09:30:22.943Z,708.14
2016-04-25T09:30:36.290Z,708.19
2016-04-25T09:30:49.462Z,708.32
2016-04-25T09:31:03.009Z,708.35
2016-04-25T09:31:16.837Z,708.56
2016-04-25T09:31:30.214Z,708.52
2016-04-25T09:31:43.526Z,708.43
2016-04-25T09:31:57.073Z,708.39
2016-04-25T09:32:10.417Z,708.4
2016-04-25T09:32:23.761Z,708.47
2016-04-25T09:32:37.108Z,708.27
2016-04-25T09:32:50.452Z,708.37
2016-04-25T09:33:03.780Z,708.27
2016-04-25T09:33:17.124Z,708.31
2016-04-25T09:33:30.454Z,708.28
2016-04-25T09:33:43.782Z,708.14
2016-04-25T09:34:00.798Z,708.27
2016-04-25T09:34:13.970Z,708.33
2016-04-25T09:34:27.737Z,708.24
2016-04-25T09:34:41.034Z,708.15
2016-04-25T09:34:54.362Z,708.13
2016-04-25T09:35:08.097Z,707.98
2016-04-25T09:35:27.662Z,708.13
2016-04-25T09:36:36.775Z,708.17
2016-04-25T09:36:50.290Z,708.21
2016-04-25T09:37:18.025Z,708.36
2016-04-25T09:37:31.356Z,708.4
2016-04-25T09:37:44.700Z,708.52
2016-04-25T09:37:58.028Z,708.52
2016-04-25T09:38:25.512Z,708.38
2016-04-25T09:38:42.373Z,708.38
2016-04-25T09:38:55.733Z,708.37
2016-04-25T09:39:14.327Z,708.35
2016-04-25T09:39:27.673Z,708.35
2016-04-25T09:39:40.986Z,708.34
2016-04-25T09:39:54.345Z,708.31
2016-04-25T09:40:11.080Z,708.29
2016-04-25T09:40:24.830Z,708.28
2016-04-25T09:40:38.223Z,708.12
2016-04-25T09:40:51.567Z,708.25
2016-04-25T09:41:04.911Z,708.24
2016-04-25T09:41:48.803Z,708.28
2016-04-25T09:42:02.178Z,708.35
2016-04-25T09:42:15.710Z,708.29
2016-04-25T09:42:29.072Z,708.28
2016-04-25T09:42:42.416Z,708.22
2016-04-25T09:42:55.744Z,708.24
2016-04-25T09:43:09.072Z,708.16
2016-04-25T09:43:22.416Z,708.26
2016-04-25T09:43:36.497Z,708.31
2016-04-25T09:44:04.278Z,708.33
2016-04-25T09:44:21.684Z,708.28
2016-04-25T09:44:38.389Z,708.31
2016-04-25T09:44:52.468Z,708.36
2016-04-25T09:45:05.764Z,708.35
2016-04-25T09:45:19.124Z,708.32
2016-04-25T09:45:32.502Z,708.37
2016-04-25T09:45:46.033Z,708.39
2016-04-25T09:45:59.580Z,708.36
2016-04-25T09:46:12.892Z,708.42
2016-04-25T09:46:26.439Z,708.33
2016-04-25T09:46:39.958Z,708.41
2016-04-25T09:47:07.458Z,708.35
2016-04-25T09:47:34.930Z,708.31
2016-04-25T09:47:48.289Z,708.36
2016-04-25T09:48:01.633Z,708.37
2016-04-25T09:48:14.945Z,708.34
2016-04-25T09:48:28.494Z,708.32
2016-04-25T09:48:41.838Z,708.31
2016-04-25T09:48:55.572Z,708.21
2016-04-25T09:49:23.275Z,708.48
2016-04-25T09:49:50.763Z,708.34
2016-04-25T09:50:04.060Z,708.35
2016-04-25T09:50:17.607Z,708.41
2016-04-25T09:50:33.953Z,709
2016-04-25T09:50:47.328Z,708.65
2016-04-25T09:51:00.672Z,708.63
2016-04-25T09:51:13.985Z,708.92
2016-04-25T09:51:27.533Z,708.48
2016-04-25T09:51:40.862Z,708.35
2016-04-25T09:51:54.393Z,708.43
2016-04-25T09:52:07.737Z,708.43
2016-04-25T09:52:21.268Z,708.63
2016-04-25T09:52:34.630Z,708.45
2016-04-25T09:52:48.146Z,708.62
2016-04-25T09:53:01.490Z,708.86
2016-04-25T09:53:14.802Z,709.01
2016-04-25T09:53:28.335Z,708.86
2016-04-25T09:53:41.679Z,708.76
2016-04-25T09:53:55.070Z,708.72
2016-04-25T09:54:10.585Z,708.74
2016-04-25T09:54:38.057Z,708.86
2016-04-25T09:54:51.229Z,708.85
2016-04-25T09:55:04.573Z,708.94
2016-04-25T09:55:32.123Z,709.01
2016-04-25T09:55:45.435Z,708.86
2016-04-25T09:55:58.482Z,708.74
2016-04-25T09:56:25.810Z,708.64
2016-04-25T09:56:38.969Z,708.65
2016-04-25T09:56:52.282Z,708.65
2016-04-25T09:57:05.626Z,708.67
2016-04-25T09:57:18.969Z,708.66
2016-04-25T09:57:32.362Z,708.62
2016-04-25T09:57:45.674Z,708.58
2016-04-25T09:57:58.987Z,708.57
2016-04-25T09:58:12.299Z,708.52
2016-04-25T09:58:25.846Z,708.41
2016-04-25T09:58:55.193Z,708.59
2016-04-25T09:59:13.943Z,708.58
2016-04-25T09:59:27.524Z,708.6
2016-04-25T09:59:40.665Z,708.72
2016-04-25T09:59:54.415Z,708.68
2016-04-25T10:00:49.262Z,708.58
2016-04-25T10:01:02.793Z,708.6
2016-04-25T10:01:16.121Z,708.6
2016-04-25T10:01:29.451Z,708.73
2016-04-25T10:02:24.889Z,708.77
2016-04-25T10:02:38.204Z,708.52
2016-04-25T10:02:51.532Z,708.21
2016-04-25T10:03:05.470Z,708.53
2016-04-25T10:03:18.829Z,708.45
2016-04-25T10:03:32.175Z,708.34
2016-04-25T10:03:45.472Z,708.63
2016-04-25T10:04:01.487Z,708.68
2016-04-25T10:04:15.237Z,708.76
2016-04-25T10:04:28.631Z,708.66
2016-04-25T10:04:42.162Z,708.52
2016-04-25T10:04:55.475Z,708.54
2016-04-25T10:05:08.787Z,708.55
2016-04-25T10:05:36.275Z,708.56
2016-04-25T10:05:49.603Z,708.6
2016-04-25T10:06:03.134Z,708.6
2016-04-25T10:06:16.478Z,708.55